Time;durP1;ratioP1;P1;durP2;ratioP2;P2;SDS_P1;SDS_P2;PMS_P1;PMS_P2;Temp;Humidity;BMP_temperature;BMP_pressure;BME280_temperature;BME280_humidity;BME280_pressure;Samples;Min_cycle;Max_cycle;Signal;HPM_P1;HPM_P2
2023/04/04 00:02:58;;;;;;;3.93;3.83;;;0.10;65.10;;;;;;6246105;28;20717;-81
2023/04/04 00:06:01;;;;;;;4.37;4.27;;;0.10;65.10;;;;;;6261501;28;20618;-79
2023/04/04 00:09:09;;;;;;;4.60;4.40;;;0.10;65.00;;;;;;6251384;28;20230;-82
2023/04/04 00:12:13;;;;;;;5.00;4.63;;;0.00;65.00;;;;;;6247913;28;20231;-81
2023/04/04 00:15:16;;;;;;;5.60;4.30;;;0.00;65.20;;;;;;6273077;28;20741;-79
2023/04/04 00:18:19;;;;;;;4.63;4.20;;;0.00;65.30;;;;;;6271867;28;20249;-79
2023/04/04 00:21:24;;;;;;;4.67;4.27;;;0.00;65.40;;;;;;6257649;28;20234;-78
2023/04/04 00:24:29;;;;;;;5.00;4.60;;;0.00;65.50;;;;;;6268440;28;20299;-81
2023/04/04 00:27:32;;;;;;;5.77;4.77;;;0.00;65.70;;;;;;6264479;28;20301;-79
2023/04/04 00:30:36;;;;;;;4.90;4.50;;;-0.10;66.00;;;;;;6239167;28;20709;-82
2023/04/04 00:33:40;;;;;;;4.80;4.40;;;-0.10;66.00;;;;;;6242629;28;20235;-82
2023/04/04 00:36:43;;;;;;;4.67;4.40;;;-0.10;66.00;;;;;;6246033;28;20252;-82
2023/04/04 00:39:48;;;;;;;4.83;4.53;;;-0.10;66.20;;;;;;6245232;28;20242;-79
2023/04/04 00:42:53;;;;;;;6.50;4.47;;;-0.10;66.20;;;;;;6246775;28;20226;-80
2023/04/04 00:45:56;;;;;;;5.50;4.53;;;-0.10;66.20;;;;;;6227396;28;20376;-80
2023/04/04 00:48:59;;;;;;;4.60;4.30;;;-0.10;66.30;;;;;;6255662;28;20335;-79
2023/04/04 00:52:05;;;;;;;4.93;4.63;;;-0.20;66.40;;;;;;6259343;28;20748;-80
2023/04/04 00:55:10;;;;;;;4.80;4.40;;;-0.10;66.50;;;;;;6244726;28;20322;-82
2023/04/04 00:58:14;;;;;;;4.97;4.67;;;-0.20;66.70;;;;;;6252375;28;20375;-80
2023/04/04 01:01:17;;;;;;;5.00;4.70;;;-0.20;66.60;;;;;;6258481;28;20632;-82
2023/04/04 01:04:20;;;;;;;4.73;4.50;;;-0.30;66.90;;;;;;6236960;28;20346;-81
2023/04/04 01:07:23;;;;;;;5.17;4.77;;;-0.30;66.80;;;;;;6259866;28;20230;-81
2023/04/04 01:10:30;;;;;;;4.87;4.67;;;-0.30;66.80;;;;;;6252030;28;20235;-79
2023/04/04 01:13:35;;;;;;;4.83;4.53;;;-0.30;66.90;;;;;;6251224;28;20336;-81
2023/04/04 01:16:39;;;;;;;4.73;4.47;;;-0.30;66.80;;;;;;6245644;28;20233;-79
2023/04/04 01:19:48;;;;;;;6.37;5.40;;;-0.30;66.90;;;;;;6253869;28;20307;-80
2023/04/04 01:22:53;;;;;;;6.03;5.00;;;-0.30;66.90;;;;;;6225101;28;20383;-82
2023/04/04 01:26:03;;;;;;;5.77;5.37;;;-0.30;67.00;;;;;;6248639;28;20286;-82
2023/04/04 01:29:06;;;;;;;5.50;5.10;;;-0.40;67.20;;;;;;6241005;28;20238;-82
2023/04/04 01:32:14;;;;;;;6.83;5.40;;;-0.40;67.20;;;;;;6253871;28;20333;-82
2023/04/04 01:35:26;;;;;;;6.27;5.77;;;-0.40;67.30;;;;;;6249355;28;20234;-81
2023/04/04 01:38:41;;;;;;;6.00;5.57;;;-0.40;67.30;;;;;;6251442;28;20313;-80
2023/04/04 01:41:48;;;;;;;5.33;4.93;;;-0.40;67.30;;;;;;6246167;28;20709;-79
2023/04/04 01:44:55;;;;;;;5.40;5.03;;;-0.50;67.50;;;;;;6253534;28;20721;-79
2023/04/04 01:47:58;;;;;;;5.47;5.17;;;-0.50;67.50;;;;;;6246463;28;21990;-80
2023/04/04 01:51:02;;;;;;;6.20;5.67;;;-0.50;67.50;;;;;;6250204;28;20238;-79
2023/04/04 01:54:05;;;;;;;5.73;5.00;;;-0.50;67.50;;;;;;6245736;28;20260;-79
2023/04/04 01:57:10;;;;;;;5.17;4.77;;;-0.50;67.60;;;;;;6240049;28;20740;-81
2023/04/04 02:00:15;;;;;;;4.57;4.37;;;-0.50;67.60;;;;;;6249046;28;20238;-81
2023/04/04 02:03:18;;;;;;;5.17;4.70;;;-0.60;67.70;;;;;;6262065;28;20273;-79
2023/04/04 02:06:21;;;;;;;4.97;4.67;;;-0.60;67.80;;;;;;6247828;28;20234;-80
2023/04/04 02:09:25;;;;;;;5.70;5.10;;;-0.60;67.90;;;;;;6252572;28;20250;-80
2023/04/04 02:12:29;;;;;;;5.40;4.90;;;-0.60;68.00;;;;;;6246974;28;20245;-79
2023/04/04 02:15:33;;;;;;;6.23;5.30;;;-0.60;68.00;;;;;;6255237;28;20249;-80
2023/04/04 02:18:36;;;;;;;5.40;4.97;;;-0.60;68.00;;;;;;6253620;28;20237;-81
2023/04/04 02:21:39;;;;;;;5.60;5.10;;;-0.70;68.20;;;;;;6246894;28;20247;-81
2023/04/04 02:24:42;;;;;;;5.30;4.87;;;-0.70;68.20;;;;;;6244851;28;20748;-78
2023/04/04 02:27:47;;;;;;;5.17;4.93;;;-0.70;68.20;;;;;;6254495;28;20241;-82
2023/04/04 02:30:50;;;;;;;6.07;5.57;;;-0.70;68.20;;;;;;6239475;28;20239;-80
2023/04/04 02:33:53;;;;;;;5.20;4.97;;;-0.70;68.40;;;;;;6258718;28;20789;-81
2023/04/04 02:36:56;;;;;;;5.63;5.23;;;-0.70;68.40;;;;;;6258971;28;20577;-81
2023/04/04 02:39:59;;;;;;;5.63;5.13;;;-0.70;68.50;;;;;;6250558;28;20234;-79
2023/04/04 02:43:03;;;;;;;5.73;5.23;;;-0.70;68.60;;;;;;6246248;28;20226;-81
2023/04/04 02:46:07;;;;;;;5.80;5.47;;;-0.70;68.70;;;;;;6253440;28;20639;-80
2023/04/04 02:49:23;;;;;;;5.57;5.27;;;-0.70;68.70;;;;;;6246484;28;20630;-80
2023/04/04 02:52:26;;;;;;;5.93;5.00;;;-0.70;69.00;;;;;;6256664;28;20242;-77
2023/04/04 02:55:30;;;;;;;5.87;5.37;;;-0.80;68.90;;;;;;6247507;28;20474;-82
2023/04/04 02:58:37;;;;;;;5.73;5.20;;;-0.80;68.90;;;;;;6258419;28;20632;-80
2023/04/04 03:01:41;;;;;;;5.57;5.27;;;-0.80;69.00;;;;;;6247650;28;20246;-81
2023/04/04 03:04:44;;;;;;;6.10;5.60;;;-0.80;69.00;;;;;;6257091;28;20241;-81
2023/04/04 03:07:47;;;;;;;5.33;4.83;;;-0.80;69.00;;;;;;6257998;28;20241;-81
2023/04/04 03:10:50;;;;;;;5.83;5.33;;;-0.90;69.00;;;;;;6259459;28;20630;-81
2023/04/04 03:13:55;;;;;;;5.60;5.17;;;-0.90;69.00;;;;;;6262417;28;20230;-77
2023/04/04 03:16:58;;;;;;;5.30;4.80;;;-0.90;69.20;;;;;;6249900;28;20389;-83
2023/04/04 03:20:01;;;;;;;5.67;5.37;;;-0.90;69.10;;;;;;6245847;28;20710;-83
2023/04/04 03:23:04;;;;;;;4.90;4.60;;;-0.90;69.10;;;;;;6248334;28;20238;-79
2023/04/04 03:26:07;;;;;;;6.33;5.70;;;-0.90;69.10;;;;;;6254633;28;20222;-81
2023/04/04 03:29:12;;;;;;;7.70;5.67;;;-0.90;69.00;;;;;;6254999;28;20268;-76
2023/04/04 03:32:15;;;;;;;5.57;5.13;;;-1.00;69.00;;;;;;6249274;28;20257;-77
2023/04/04 03:35:18;;;;;;;5.43;5.27;;;-1.00;69.20;;;;;;6285937;28;20325;-78
2023/04/04 03:38:21;;;;;;;5.77;5.00;;;-1.00;69.30;;;;;;6275348;28;20887;-78
2023/04/04 03:41:24;;;;;;;6.37;5.50;;;-1.00;69.40;;;;;;6266650;28;20294;-79
2023/04/04 03:44:29;;;;;;;5.30;5.00;;;-1.00;69.60;;;;;;6250306;28;20626;-81
2023/04/04 03:47:32;;;;;;;5.63;5.13;;;-1.00;69.40;;;;;;6253518;28;20714;-80
2023/04/04 03:50:36;;;;;;;5.40;5.13;;;-1.00;69.40;;;;;;6246139;28;20234;-83
2023/04/04 03:53:39;;;;;;;5.70;5.10;;;-1.00;69.40;;;;;;6240877;28;20593;-81
2023/04/04 03:56:43;;;;;;;5.37;5.00;;;-1.00;69.40;;;;;;6240739;28;20249;-82
2023/04/04 03:59:47;;;;;;;5.07;4.67;;;-1.00;69.30;;;;;;6241521;28;20227;-81
2023/04/04 04:02:50;;;;;;;5.57;5.13;;;-1.00;69.40;;;;;;6245788;28;20243;-79
2023/04/04 04:05:54;;;;;;;5.73;5.20;;;-1.10;69.50;;;;;;6247105;28;20231;-77
2023/04/04 04:08:57;;;;;;;6.50;4.63;;;-1.10;69.50;;;;;;6255474;28;20373;-78
2023/04/04 04:12:00;;;;;;;5.17;4.90;;;-1.10;69.50;;;;;;6251390;28;20316;-77
2023/04/04 04:15:06;;;;;;;5.30;4.57;;;-1.10;69.60;;;;;;6257861;28;20233;-78
2023/04/04 04:18:09;;;;;;;5.63;4.90;;;-1.10;69.60;;;;;;6246342;28;20321;-78
2023/04/04 04:21:12;;;;;;;5.23;4.80;;;-1.10;69.60;;;;;;6248063;28;20236;-77
2023/04/04 04:24:15;;;;;;;5.27;4.80;;;-1.10;69.70;;;;;;6255758;28;20231;-76
2023/04/04 04:27:18;;;;;;;6.30;5.00;;;-1.20;70.00;;;;;;6248490;28;20226;-75
2023/04/04 04:30:23;;;;;;;5.77;5.33;;;-1.20;70.10;;;;;;6256039;28;20241;-78
2023/04/04 04:33:29;;;;;;;5.10;4.80;;;-1.20;69.90;;;;;;6259805;28;20245;-77
2023/04/04 04:36:32;;;;;;;5.63;5.23;;;-1.20;70.00;;;;;;6243353;28;20242;-76
2023/04/04 04:39:36;;;;;;;5.50;5.00;;;-1.20;69.90;;;;;;6251859;28;20233;-77
2023/04/04 04:42:44;;;;;;;5.27;4.87;;;-1.30;70.00;;;;;;6244941;28;20250;-76
2023/04/04 04:45:49;;;;;;;5.40;5.00;;;-1.30;70.00;;;;;;6254682;28;20403;-77
2023/04/04 04:48:52;;;;;;;5.20;4.80;;;-1.20;70.00;;;;;;6246093;28;20617;-78
2023/04/04 04:51:56;;;;;;;6.10;5.40;;;-1.20;70.10;;;;;;6251287;28;20293;-77
2023/04/04 04:55:01;;;;;;;5.40;4.90;;;-1.20;70.00;;;;;;6258691;28;20230;-76
2023/04/04 04:58:05;;;;;;;5.67;5.17;;;-1.10;70.00;;;;;;6241070;28;20238;-76
2023/04/04 05:01:10;;;;;;;6.00;4.87;;;-1.10;70.00;;;;;;6259501;28;20305;-77
2023/04/04 05:04:13;;;;;;;5.27;4.90;;;-1.10;70.00;;;;;;6256063;28;20235;-78
2023/04/04 05:07:17;;;;;;;7.17;4.93;;;-1.10;70.00;;;;;;6261455;28;20340;-78
2023/04/04 05:10:20;;;;;;;5.90;5.40;;;-1.10;70.10;;;;;;6246962;28;20229;-76
2023/04/04 05:13:23;;;;;;;5.30;4.90;;;-1.10;70.10;;;;;;6257389;28;20233;-77
2023/04/04 05:16:28;;;;;;;6.10;5.70;;;-1.00;70.00;;;;;;6242948;28;20326;-75
2023/04/04 05:19:31;;;;;;;5.97;5.30;;;-0.90;69.90;;;;;;6253131;28;20248;-77
2023/04/04 05:22:34;;;;;;;9.70;5.53;;;-0.90;69.80;;;;;;6252636;28;20238;-76
2023/04/04 05:25:37;;;;;;;5.93;5.33;;;-0.90;69.90;;;;;;6241492;28;20230;-78
2023/04/04 05:28:41;;;;;;;5.37;5.07;;;-0.90;69.90;;;;;;6243673;28;20234;-77
2023/04/04 05:31:46;;;;;;;8.10;5.90;;;-0.90;70.00;;;;;;6252717;28;20234;-77
2023/04/04 05:34:49;;;;;;;5.67;5.27;;;-0.70;70.00;;;;;;6245295;28;20230;-77
2023/04/04 05:37:55;;;;;;;5.90;5.43;;;-0.70;69.80;;;;;;6237923;28;20319;-76
2023/04/04 05:40:58;;;;;;;5.70;5.27;;;-0.70;69.70;;;;;;6233872;28;20242;-78
2023/04/04 05:44:01;;;;;;;6.07;5.57;;;-0.60;69.80;;;;;;6248595;28;20249;-78
2023/04/04 05:47:06;;;;;;;6.10;4.70;;;-0.50;69.40;;;;;;6259217;28;20241;-75
2023/04/04 05:50:10;;;;;;;6.40;5.77;;;-0.50;69.30;;;;;;6260484;28;20244;-79
2023/04/04 05:53:13;;;;;;;8.87;5.80;;;-0.40;68.90;;;;;;6230393;28;20375;-78
2023/04/04 05:56:16;;;;;;;7.67;5.73;;;-0.30;68.70;;;;;;6241822;28;20248;-77
2023/04/04 05:59:19;;;;;;;5.67;5.00;;;-0.20;68.40;;;;;;6241634;28;20235;-77
2023/04/04 06:02:24;;;;;;;5.83;5.43;;;-0.20;68.20;;;;;;6247197;28;20826;-76
2023/04/04 06:05:27;;;;;;;7.57;5.20;;;-0.10;68.00;;;;;;6263513;28;20272;-76
2023/04/04 06:08:30;;;;;;;6.13;5.53;;;-0.10;67.90;;;;;;6251742;28;20283;-77
2023/04/04 06:11:42;;;;;;;6.27;5.17;;;0.00;67.90;;;;;;6257003;28;20241;-77
2023/04/04 06:14:45;;;;;;;9.30;6.10;;;0.20;67.80;;;;;;6257123;28;20604;-76
2023/04/04 06:17:50;;;;;;;7.03;5.77;;;0.50;67.50;;;;;;6250339;28;20229;-75
2023/04/04 06:20:53;;;;;;;7.03;5.40;;;0.60;66.90;;;;;;6249871;28;20234;-76
2023/04/04 06:23:56;;;;;;;5.97;5.37;;;0.80;66.10;;;;;;6254859;28;20234;-76
2023/04/04 06:26:59;;;;;;;5.53;5.13;;;0.80;65.80;;;;;;6249908;28;20230;-77
2023/04/04 06:30:02;;;;;;;5.53;5.00;;;1.00;65.70;;;;;;6253497;28;20254;-76
2023/04/04 06:33:07;;;;;;;5.40;5.10;;;1.20;65.50;;;;;;6260114;28;20240;-76
2023/04/04 06:36:10;;;;;;;5.00;4.70;;;1.40;65.00;;;;;;6261956;28;20734;-77
2023/04/04 06:39:13;;;;;;;5.27;4.87;;;1.50;64.80;;;;;;6247266;28;20245;-78
2023/04/04 06:42:16;;;;;;;5.20;4.90;;;1.70;64.30;;;;;;6257345;28;20238;-78
2023/04/04 06:45:19;;;;;;;6.93;5.17;;;1.80;64.00;;;;;;6257489;28;20234;-77
2023/04/04 06:48:23;;;;;;;5.40;5.00;;;2.00;63.40;;;;;;6248000;28;20238;-78
2023/04/04 06:51:27;;;;;;;4.90;4.50;;;2.10;62.30;;;;;;6254706;28;20792;-77
2023/04/04 06:54:30;;;;;;;4.40;3.90;;;2.30;62.10;;;;;;6258907;28;20230;-75
2023/04/04 06:57:33;;;;;;;5.07;4.50;;;2.50;60.30;;;;;;6242760;28;20234;-76
2023/04/04 07:00:36;;;;;;;4.47;4.13;;;2.50;60.20;;;;;;6258566;28;20226;-75
2023/04/04 07:03:43;;;;;;;5.00;4.70;;;2.50;60.20;;;;;;6250930;28;20243;-76
2023/04/04 07:06:46;;;;;;;3.87;3.63;;;3.10;61.50;;;;;;6234586;28;20254;-78
2023/04/04 07:09:49;;;;;;;4.33;4.00;;;4.40;57.50;;;;;;6233702;28;20234;-76
2023/04/04 07:12:54;;;;;;;4.37;4.10;;;4.70;55.90;;;;;;6261795;28;20730;-75
2023/04/04 07:15:57;;;;;;;3.87;3.67;;;4.50;55.90;;;;;;6250080;28;20238;-77
2023/04/04 07:19:01;;;;;;;4.70;4.30;;;4.20;55.80;;;;;;6245609;28;20702;-75
2023/04/04 07:22:04;;;;;;;4.30;4.00;;;4.00;56.10;;;;;;6254892;28;20501;-78
2023/04/04 07:25:09;;;;;;;3.90;3.70;;;3.80;56.70;;;;;;6258681;28;20248;-76
2023/04/04 07:28:12;;;;;;;4.07;3.87;;;3.70;56.50;;;;;;6256389;28;20322;-76
2023/04/04 07:31:15;;;;;;;6.73;4.50;;;3.60;56.70;;;;;;6254017;28;20667;-75
2023/04/04 07:34:20;;;;;;;4.53;4.17;;;3.50;57.20;;;;;;6249087;28;20253;-77
2023/04/04 07:37:25;;;;;;;4.80;4.50;;;3.30;57.20;;;;;;6244600;28;20628;-78
2023/04/04 07:40:28;;;;;;;4.10;3.80;;;3.30;57.50;;;;;;6249956;28;20238;-76
2023/04/04 07:43:31;;;;;;;4.37;3.97;;;3.30;57.80;;;;;;6248841;28;20239;-77
2023/04/04 07:46:34;;;;;;;3.93;3.73;;;3.10;57.50;;;;;;6236232;28;20246;-77
2023/04/04 07:49:39;;;;;;;4.50;3.70;;;3.10;57.90;;;;;;6246274;28;20776;-76
2023/04/04 07:52:48;;;;;;;4.20;4.00;;;3.10;57.80;;;;;;6252392;28;20722;-76
2023/04/04 07:55:51;;;;;;;4.40;4.00;;;3.10;57.90;;;;;;6249829;28;20249;-79
2023/04/04 07:58:54;;;;;;;4.63;4.13;;;3.10;58.40;;;;;;6252515;28;20238;-77
2023/04/04 08:01:57;;;;;;;4.33;4.03;;;3.10;58.20;;;;;;6250751;28;20381;-78
2023/04/04 08:05:02;;;;;;;4.73;4.30;;;3.30;57.70;;;;;;6246350;28;20321;-76
2023/04/04 08:08:05;;;;;;;4.40;4.20;;;3.30;57.70;;;;;;6249176;28;20308;-76
2023/04/04 08:11:08;;;;;;;4.00;3.70;;;3.30;57.70;;;;;;6256553;28;20261;-78
2023/04/04 08:14:12;;;;;;;3.83;3.53;;;3.60;57.20;;;;;;6265608;28;20235;-76
2023/04/04 08:17:17;;;;;;;4.20;3.80;;;3.70;56.00;;;;;;6248109;28;20218;-78
2023/04/04 08:20:22;;;;;;;4.67;3.60;;;3.90;55.30;;;;;;6284668;28;20279;-76
2023/04/04 08:23:25;;;;;;;3.77;3.47;;;3.90;54.80;;;;;;6281259;28;20226;-77
2023/04/04 08:26:28;;;;;;;4.17;4.00;;;3.90;55.50;;;;;;6271591;28;20248;-77
2023/04/04 08:29:31;;;;;;;6.17;3.77;;;4.10;55.20;;;;;;6272181;28;20278;-77
2023/04/04 08:32:34;;;;;;;3.53;3.43;;;4.30;55.30;;;;;;6274057;28;20302;-76
2023/04/04 08:35:39;;;;;;;4.00;3.90;;;4.50;54.60;;;;;;6270003;28;20239;-75
2023/04/04 08:38:42;;;;;;;3.50;3.40;;;4.60;54.20;;;;;;6249644;28;20238;-77
2023/04/04 08:41:46;;;;;;;3.93;3.70;;;4.70;53.90;;;;;;6258177;28;20253;-75
2023/04/04 08:44:51;;;;;;;4.17;3.60;;;5.00;53.80;;;;;;6239489;28;20235;-77
2023/04/04 08:47:57;;;;;;;3.37;3.23;;;5.00;53.70;;;;;;6253764;28;20242;-77
2023/04/04 08:51:04;;;;;;;4.07;3.83;;;5.10;52.50;;;;;;6250068;28;20241;-76
2023/04/04 08:54:08;;;;;;;3.93;3.60;;;5.10;52.30;;;;;;6247061;28;20249;-76
2023/04/04 08:57:11;;;;;;;4.20;3.80;;;5.10;52.30;;;;;;6239734;28;20726;-75
2023/04/04 09:00:16;;;;;;;4.27;3.97;;;5.20;52.00;;;;;;6238916;28;20430;-77
2023/04/04 09:03:25;;;;;;;3.80;3.50;;;5.10;51.60;;;;;;6250769;28;20268;-77
2023/04/04 09:06:29;;;;;;;3.50;3.30;;;5.00;51.50;;;;;;6282146;28;20359;-78
2023/04/04 09:09:36;;;;;;;4.47;4.07;;;5.20;51.40;;;;;;6274617;28;20247;-76
2023/04/04 09:12:46;;;;;;;3.70;3.60;;;5.30;52.20;;;;;;6260242;28;20230;-76
2023/04/04 09:15:52;;;;;;;3.83;3.50;;;5.30;50.50;;;;;;6273272;28;20226;-76
2023/04/04 09:18:55;;;;;;;3.93;3.60;;;5.40;50.50;;;;;;6260869;28;20488;-77
2023/04/04 09:22:00;;;;;;;4.10;3.80;;;5.50;50.50;;;;;;6246644;28;20640;-78
2023/04/04 09:25:07;;;;;;;4.40;4.00;;;5.60;50.00;;;;;;6233599;28;20231;-76
2023/04/04 09:28:11;;;;;;;3.60;3.50;;;5.70;50.10;;;;;;6238541;28;20587;-78
2023/04/04 09:31:16;;;;;;;7.90;4.00;;;5.70;50.40;;;;;;6246074;28;20247;-76
2023/04/04 09:34:20;;;;;;;3.90;3.70;;;5.80;50.00;;;;;;6251246;28;20692;-78
2023/04/04 09:37:25;;;;;;;4.40;4.00;;;5.80;50.10;;;;;;6253297;28;20423;-77
2023/04/04 09:40:29;;;;;;;3.70;3.47;;;6.00;49.80;;;;;;6244361;28;20241;-76
2023/04/04 09:43:32;;;;;;;3.50;3.40;;;6.20;49.40;;;;;;6260571;28;20226;-77
2023/04/04 09:46:37;;;;;;;3.87;3.67;;;6.30;48.40;;;;;;6252275;28;20278;-78
2023/04/04 09:49:41;;;;;;;3.73;3.53;;;6.40;49.10;;;;;;6244070;28;20614;-75
2023/04/04 09:52:48;;;;;;;3.80;3.60;;;6.70;48.20;;;;;;6249901;28;20246;-76
2023/04/04 09:55:53;;;;;;;4.27;3.97;;;6.60;48.40;;;;;;6241670;28;20239;-77
2023/04/04 09:58:56;;;;;;;6.37;3.70;;;6.80;48.00;;;;;;6249294;28;20223;-78
2023/04/04 10:02:09;;;;;;;4.17;3.70;;;6.90;48.00;;;;;;6247523;28;20473;-76
2023/04/04 10:05:14;;;;;;;3.73;3.50;;;7.00;47.80;;;;;;6258872;28;20256;-77
2023/04/04 10:08:22;;;;;;;3.77;3.57;;;7.20;47.20;;;;;;6250368;28;20235;-77
2023/04/04 10:11:31;;;;;;;3.70;3.50;;;7.40;47.20;;;;;;6248995;28;20230;-76
2023/04/04 10:14:35;;;;;;;3.80;3.40;;;7.40;46.20;;;;;;6245640;28;20759;-77
2023/04/04 10:17:40;;;;;;;3.43;3.13;;;7.20;46.20;;;;;;6254277;28;20753;-76
2023/04/04 10:20:44;;;;;;;3.20;3.00;;;6.80;46.60;;;;;;6249385;28;20238;-75
2023/04/04 10:23:49;;;;;;;3.60;3.40;;;6.70;46.40;;;;;;6254512;28;20321;-76
2023/04/04 10:26:53;;;;;;;3.50;3.20;;;6.50;46.40;;;;;;6256683;28;20270;-74
2023/04/04 10:29:56;;;;;;;3.30;3.00;;;6.60;46.50;;;;;;6249370;28;20598;-78
2023/04/04 10:33:06;;;;;;;3.10;3.00;;;6.70;46.20;;;;;;6244077;28;20242;-77
2023/04/04 10:36:12;;;;;;;3.20;3.07;;;7.00;46.00;;;;;;6252535;28;20239;-77
2023/04/04 10:39:21;;;;;;;3.97;3.67;;;7.00;46.30;;;;;;6249441;28;20238;-77
2023/04/04 10:42:30;;;;;;;2.83;2.73;;;7.00;45.70;;;;;;6255802;28;20495;-77
2023/04/04 10:45:37;;;;;;;3.03;3.03;;;6.90;45.30;;;;;;6254577;28;20230;-77
2023/04/04 10:48:41;;;;;;;3.10;3.00;;;6.70;45.50;;;;;;6252723;28;20254;-77
2023/04/04 10:51:45;;;;;;;3.00;2.90;;;6.60;44.90;;;;;;6257689;28;20242;-78
2023/04/04 10:55:03;;;;;;;4.20;3.00;;;6.60;45.60;;;;;;6252812;28;20245;-77
2023/04/04 10:58:07;;;;;;;3.30;3.10;;;7.00;44.70;;;;;;6253588;28;20226;-75
2023/04/04 11:01:10;;;;;;;3.40;3.33;;;7.30;43.30;;;;;;6262011;28;20249;-78
2023/04/04 11:04:18;;;;;;;3.43;3.13;;;7.50;44.00;;;;;;6245697;28;20242;-78
2023/04/04 11:07:28;;;;;;;3.33;3.10;;;7.80;43.80;;;;;;6250675;28;20702;-77
2023/04/04 11:10:35;;;;;;;3.33;3.13;;;7.50;44.80;;;;;;6230650;28;20258;-74
2023/04/04 11:13:40;;;;;;;3.13;3.03;;;7.30;44.10;;;;;;6239991;28;20522;-78
2023/04/04 11:16:46;;;;;;;3.13;2.93;;;7.00;43.90;;;;;;6238886;28;20247;-75
2023/04/04 11:19:59;;;;;;;3.17;2.97;;;6.80;43.70;;;;;;6256484;28;20266;-77
2023/04/04 11:23:03;;;;;;;3.13;2.87;;;6.80;43.60;;;;;;6251924;28;20731;-78
2023/04/04 11:26:08;;;;;;;3.00;2.90;;;7.10;43.40;;;;;;6246931;28;20254;-77
2023/04/04 11:29:21;;;;;;;2.73;2.63;;;7.50;44.30;;;;;;6254271;28;20249;-77
2023/04/04 11:32:34;;;;;;;2.90;2.80;;;7.80;44.20;;;;;;6243688;28;20415;-75
2023/04/04 11:35:39;;;;;;;3.40;3.20;;;7.80;43.60;;;;;;6246775;28;20234;-75
2023/04/04 11:38:49;;;;;;;3.07;2.97;;;7.90;43.50;;;;;;6248197;28;20231;-78
2023/04/04 11:42:02;;;;;;;3.20;2.90;;;7.80;43.50;;;;;;6249228;28;20271;-77
2023/04/04 11:45:09;;;;;;;3.33;3.07;;;7.60;43.30;;;;;;6250004;28;20230;-76
2023/04/04 11:48:14;;;;;;;2.80;2.77;;;7.40;43.70;;;;;;6253466;28;20238;-79
2023/04/04 11:51:18;;;;;;;3.40;3.10;;;7.50;43.60;;;;;;6242115;28;20234;-78
2023/04/04 11:54:23;;;;;;;3.13;2.93;;;8.00;43.30;;;;;;6252731;28;20536;-78
2023/04/04 11:57:27;;;;;;;3.00;2.90;;;8.30;41.90;;;;;;6243666;28;20226;-77
2023/04/04 12:00:31;;;;;;;2.93;2.80;;;8.30;41.90;;;;;;6259019;28;20606;-76
2023/04/04 12:03:36;;;;;;;3.10;3.00;;;8.20;42.70;;;;;;6262829;28;20245;-75
2023/04/04 12:06:39;;;;;;;3.23;3.00;;;8.10;42.10;;;;;;6251672;28;20745;-76
2023/04/04 12:09:43;;;;;;;2.90;2.80;;;8.00;42.70;;;;;;6252159;28;20310;-76
2023/04/04 12:12:48;;;;;;;3.13;3.00;;;7.80;43.10;;;;;;6249515;28;20230;-78
2023/04/04 12:15:51;;;;;;;3.00;2.80;;;8.00;43.50;;;;;;6245608;28;20701;-75
2023/04/04 12:18:54;;;;;;;3.10;3.00;;;8.20;42.50;;;;;;6250487;28;20254;-76
2023/04/04 12:21:58;;;;;;;3.20;3.10;;;8.40;43.50;;;;;;6247327;28;20245;-77
2023/04/04 12:25:01;;;;;;;2.53;2.53;;;8.80;41.40;;;;;;6253612;28;20386;-76
2023/04/04 12:28:06;;;;;;;2.83;2.63;;;8.90;41.30;;;;;;6258334;28;21384;-77
2023/04/04 12:31:10;;;;;;;2.87;2.67;;;8.80;41.20;;;;;;6254465;28;20241;-77
2023/04/04 12:34:18;;;;;;;2.50;2.40;;;9.00;41.90;;;;;;6254977;28;20288;-77
2023/04/04 12:37:22;;;;;;;2.60;2.50;;;9.20;41.50;;;;;;6254223;28;20227;-75
2023/04/04 12:40:30;;;;;;;2.90;2.70;;;9.10;41.00;;;;;;6240661;28;20238;-78
2023/04/04 12:43:35;;;;;;;3.00;2.90;;;9.10;41.60;;;;;;6232845;28;20241;-77
2023/04/04 12:46:39;;;;;;;3.00;2.90;;;9.00;41.70;;;;;;6243766;28;20244;-75
2023/04/04 12:49:47;;;;;;;3.20;3.10;;;8.80;41.90;;;;;;6245912;28;20250;-75
2023/04/04 12:52:52;;;;;;;3.30;3.10;;;8.40;41.60;;;;;;6250201;28;20227;-78
2023/04/04 12:56:04;;;;;;;2.93;2.83;;;8.10;42.20;;;;;;6257513;28;20316;-78
2023/04/04 12:59:10;;;;;;;2.97;2.87;;;8.10;42.60;;;;;;6253813;28;20246;-77
2023/04/04 13:02:16;;;;;;;3.20;3.00;;;8.20;41.70;;;;;;6236495;28;20237;-78
2023/04/04 13:05:22;;;;;;;3.27;3.07;;;8.30;41.90;;;;;;6244925;28;20262;-77
2023/04/04 13:08:25;;;;;;;2.90;2.80;;;8.60;41.50;;;;;;6242540;28;20460;-79
2023/04/04 13:11:58;;;;;;;2.77;2.73;;;8.50;41.60;;;;;;6255673;28;20268;-77
2023/04/04 13:15:06;;;;;;;2.60;2.60;;;8.30;42.10;;;;;;6258123;28;20689;-77
2023/04/04 13:18:15;;;;;;;3.03;2.80;;;8.10;41.80;;;;;;6239014;28;20636;-76
2023/04/04 13:21:18;;;;;;;2.80;2.80;;;7.90;41.90;;;;;;6244415;28;20243;-77
2023/04/04 13:24:21;;;;;;;2.60;2.60;;;7.70;41.90;;;;;;6249859;28;20245;-76
2023/04/04 13:27:27;;;;;;;2.60;2.50;;;8.00;41.80;;;;;;6250166;28;20242;-77
2023/04/04 13:30:31;;;;;;;2.80;2.70;;;8.30;41.00;;;;;;6246996;28;20238;-78
2023/04/04 13:33:35;;;;;;;2.90;2.70;;;8.50;41.10;;;;;;6240904;28;20277;-76
2023/04/04 13:36:38;;;;;;;3.30;2.80;;;8.60;41.50;;;;;;6246185;28;20746;-76
2023/04/04 13:39:41;;;;;;;2.80;2.70;;;8.90;41.40;;;;;;6246037;28;20270;-77
2023/04/04 13:42:44;;;;;;;2.67;2.60;;;8.90;40.90;;;;;;6250776;28;20234;-76
2023/04/04 13:45:49;;;;;;;3.03;2.83;;;8.90;41.00;;;;;;6249427;28;20242;-77
2023/04/04 13:48:52;;;;;;;3.07;2.97;;;8.60;41.50;;;;;;6239023;28;20333;-77
2023/04/04 13:51:55;;;;;;;3.03;2.90;;;8.40;41.30;;;;;;6241655;28;20242;-76
2023/04/04 13:54:58;;;;;;;2.70;2.50;;;8.40;41.90;;;;;;6243725;28;20841;-77
2023/04/04 13:58:01;;;;;;;2.73;2.63;;;8.30;41.80;;;;;;6249175;28;20245;-77
2023/04/04 14:01:06;;;;;;;2.83;2.80;;;8.30;42.20;;;;;;6250093;28;20249;-78
2023/04/04 14:04:09;;;;;;;2.50;2.50;;;8.20;41.80;;;;;;6257173;28;20594;-76
2023/04/04 14:07:25;;;;;;;3.20;2.90;;;8.40;41.80;;;;;;6246048;28;20238;-78
2023/04/04 14:10:28;;;;;;;3.10;2.90;;;8.60;41.90;;;;;;6243722;28;20238;-78
2023/04/04 14:13:31;;;;;;;2.90;2.80;;;8.80;41.50;;;;;;6254650;28;20256;-78
2023/04/04 14:16:39;;;;;;;2.90;2.70;;;8.80;40.50;;;;;;6240672;28;20234;-77
2023/04/04 14:19:44;;;;;;;3.30;3.10;;;8.40;41.20;;;;;;6246922;28;20231;-76
2023/04/04 14:22:47;;;;;;;3.27;2.97;;;8.00;41.40;;;;;;6249430;28;20238;-77
2023/04/04 14:25:50;;;;;;;3.20;3.00;;;7.80;41.50;;;;;;6254909;28;20241;-77
2023/04/04 14:28:53;;;;;;;2.90;2.90;;;7.80;41.00;;;;;;6258705;28;20234;-76
2023/04/04 14:31:57;;;;;;;2.97;2.80;;;7.60;41.50;;;;;;6252305;28;20250;-76
2023/04/04 14:35:01;;;;;;;3.40;3.20;;;7.40;41.50;;;;;;6258850;28;20225;-78
2023/04/04 14:38:04;;;;;;;3.20;3.10;;;7.50;41.40;;;;;;6258591;28;20613;-76
2023/04/04 14:41:07;;;;;;;3.57;3.37;;;7.60;40.50;;;;;;6249425;28;20375;-77
2023/04/04 14:44:10;;;;;;;3.10;3.00;;;7.80;41.10;;;;;;6261511;28;20617;-77
2023/04/04 14:47:15;;;;;;;3.43;2.83;;;7.90;41.00;;;;;;6248404;28;20238;-76
2023/04/04 14:50:18;;;;;;;3.77;2.87;;;7.80;41.20;;;;;;6243825;28;20246;-77
2023/04/04 14:53:21;;;;;;;3.70;3.40;;;7.80;41.40;;;;;;6250351;28;20245;-77
2023/04/04 14:56:25;;;;;;;3.17;2.90;;;7.80;41.70;;;;;;6252657;28;20249;-77
2023/04/04 14:59:28;;;;;;;3.47;3.37;;;7.70;41.60;;;;;;6250868;28;20230;-77
2023/04/04 15:02:32;;;;;;;2.70;2.70;;;7.50;40.50;;;;;;6245299;28;20625;-77
2023/04/04 15:05:35;;;;;;;3.03;3.03;;;7.40;41.40;;;;;;6242479;28;20230;-76
2023/04/04 15:08:40;;;;;;;3.40;3.10;;;7.20;40.60;;;;;;6248241;28;20332;-78
2023/04/04 15:11:43;;;;;;;3.43;3.20;;;7.20;41.50;;;;;;6246822;28;20238;-78
2023/04/04 15:14:47;;;;;;;3.33;3.13;;;7.30;41.50;;;;;;6247245;28;20245;-77
2023/04/04 15:17:51;;;;;;;3.53;3.20;;;7.20;42.20;;;;;;6255492;28;20235;-77
2023/04/04 15:20:57;;;;;;;3.40;3.20;;;7.10;42.50;;;;;;6249306;28;20254;-76
2023/04/04 15:24:00;;;;;;;4.03;3.57;;;7.00;42.80;;;;;;6248607;28;20622;-79
2023/04/04 15:27:03;;;;;;;3.33;3.10;;;7.10;42.90;;;;;;6253507;28;20236;-78
2023/04/04 15:30:08;;;;;;;3.30;3.10;;;7.20;42.40;;;;;;6246405;28;20238;-78
2023/04/04 15:33:12;;;;;;;2.90;2.80;;;7.20;43.00;;;;;;6247238;28;20325;-78
2023/04/04 15:36:16;;;;;;;3.27;3.17;;;7.40;42.10;;;;;;6252779;28;20238;-77
2023/04/04 15:39:19;;;;;;;2.87;2.87;;;7.40;42.60;;;;;;6249063;28;20707;-76
2023/04/04 15:42:23;;;;;;;3.20;3.03;;;7.50;42.20;;;;;;6255924;28;20242;-76
2023/04/04 15:45:26;;;;;;;3.10;2.90;;;7.50;43.00;;;;;;6247715;28;20246;-76
2023/04/04 15:48:33;;;;;;;3.17;3.07;;;7.40;43.50;;;;;;6248759;28;20230;-76
2023/04/04 15:51:37;;;;;;;3.30;3.20;;;7.30;43.40;;;;;;6247704;28;20235;-78
2023/04/04 15:54:41;;;;;;;2.87;2.77;;;7.40;43.00;;;;;;6257600;28;20319;-77
2023/04/04 15:57:45;;;;;;;2.90;2.80;;;7.40;43.20;;;;;;6240481;28;20241;-77
2023/04/04 16:00:48;;;;;;;3.50;3.20;;;7.30;43.20;;;;;;6247978;28;20241;-78
2023/04/04 16:03:52;;;;;;;3.33;2.90;;;7.20;43.30;;;;;;6248814;28;20245;-78
2023/04/04 16:06:55;;;;;;;3.90;3.60;;;7.00;43.20;;;;;;6246548;28;20316;-78
2023/04/04 16:09:58;;;;;;;3.67;3.57;;;6.90;43.50;;;;;;6240394;28;20733;-77